Time;durP1;ratioP1;P1;durP2;ratioP2;P2;SDS_P1;SDS_P2;PMS_P1;PMS_P2;Temp;Humidity;BMP_temperature;BMP_pressure;BME280_temperature;BME280_humidity;BME280_pressure;Samples;Min_cycle;Max_cycle;Signal;HPM_P1;HPM_P2
2024/03/19 00:00:37;;;;;;;6.80;4.38;;;;;;;;;;5043564;28;20048;-58
2024/03/19 00:03:04;;;;;;;5.38;3.80;;;;;;;;;;5059655;28;20049;-59
2024/03/19 00:05:32;;;;;;;6.32;4.05;;;;;;;;;;5039940;28;20085;-59
2024/03/19 00:07:59;;;;;;;6.00;4.35;;;;;;;;;;5043494;28;20075;-60
2024/03/19 00:10:26;;;;;;;6.00;4.40;;;;;;;;;;5058976;28;20363;-60
2024/03/19 00:12:54;;;;;;;6.45;4.70;;;;;;;;;;5043783;28;20072;-60
2024/03/19 00:15:21;;;;;;;6.38;4.22;;;;;;;;;;5039256;28;20053;-62
2024/03/19 00:17:52;;;;;;;8.13;5.05;;;;;;;;;;5043283;28;20493;-60
2024/03/19 00:20:19;;;;;;;6.90;4.97;;;;;;;;;;5037231;28;20060;-60
2024/03/19 00:22:47;;;;;;;7.03;5.13;;;;;;;;;;5041563;28;20057;-60
2024/03/19 00:25:15;;;;;;;7.30;5.03;;;;;;;;;;5035805;28;20470;-60
2024/03/19 00:27:42;;;;;;;7.22;4.70;;;;;;;;;;5035534;28;20049;-59
2024/03/19 00:30:10;;;;;;;8.93;4.80;;;;;;;;;;5042356;28;20061;-61
2024/03/19 00:32:38;;;;;;;6.78;4.82;;;;;;;;;;5061191;28;20041;-59
2024/03/19 00:35:09;;;;;;;6.05;4.70;;;;;;;;;;5040465;28;20103;-59
2024/03/19 00:37:37;;;;;;;6.68;4.95;;;;;;;;;;5050877;28;20073;-59
2024/03/19 00:40:10;;;;;;;7.72;5.05;;;;;;;;;;5040348;28;20049;-59
2024/03/19 00:42:37;;;;;;;7.60;5.37;;;;;;;;;;5042524;28;20061;-59
2024/03/19 00:45:05;;;;;;;7.20;4.78;;;;;;;;;;5046430;28;20446;-59
2024/03/19 00:47:32;;;;;;;6.85;4.88;;;;;;;;;;5045241;28;20044;-60
2024/03/19 00:49:59;;;;;;;7.80;4.75;;;;;;;;;;5046037;28;20049;-59
2024/03/19 00:52:29;;;;;;;7.50;5.20;;;;;;;;;;5042549;28;20049;-59
2024/03/19 00:54:57;;;;;;;7.22;4.82;;;;;;;;;;5046524;28;20076;-58
2024/03/19 00:57:24;;;;;;;6.63;4.45;;;;;;;;;;5046759;28;20068;-64
2024/03/19 00:59:51;;;;;;;8.00;5.53;;;;;;;;;;5047347;28;20468;-60
2024/03/19 01:02:19;;;;;;;7.63;5.30;;;;;;;;;;5061449;28;20061;-61
2024/03/19 01:04:48;;;;;;;8.10;5.38;;;;;;;;;;5046112;28;20053;-59
2024/03/19 01:07:18;;;;;;;6.07;4.68;;;;;;;;;;5063215;28;20053;-58
2024/03/19 01:09:47;;;;;;;6.32;4.43;;;;;;;;;;5045354;28;20057;-59
2024/03/19 01:12:14;;;;;;;7.45;5.10;;;;;;;;;;5042199;28;20065;-60
2024/03/19 01:14:41;;;;;;;8.38;5.55;;;;;;;;;;5042977;28;20065;-59
2024/03/19 01:17:09;;;;;;;8.40;5.28;;;;;;;;;;5062050;28;20037;-61
2024/03/19 01:19:36;;;;;;;7.10;4.95;;;;;;;;;;5045870;28;20444;-59
2024/03/19 01:22:04;;;;;;;8.63;4.68;;;;;;;;;;5042768;28;20052;-59
2024/03/19 01:24:33;;;;;;;7.07;4.78;;;;;;;;;;5037349;28;20049;-59
2024/03/19 01:27:01;;;;;;;8.95;5.57;;;;;;;;;;5031914;28;20041;-58
2024/03/19 01:29:29;;;;;;;8.75;5.25;;;;;;;;;;5054331;28;20052;-59
2024/03/19 01:31:56;;;;;;;8.27;5.20;;;;;;;;;;5049959;28;20057;-59
2024/03/19 01:34:24;;;;;;;9.48;5.70;;;;;;;;;;5062451;28;20569;-59
2024/03/19 01:36:51;;;;;;;8.43;5.50;;;;;;;;;;5062533;28;20037;-59
2024/03/19 01:39:22;;;;;;;10.73;5.35;;;;;;;;;;5085170;28;20048;-59
2024/03/19 01:41:49;;;;;;;8.82;5.20;;;;;;;;;;5071033;28;20060;-61
2024/03/19 01:44:18;;;;;;;8.10;5.47;;;;;;;;;;5063585;28;20041;-59
2024/03/19 01:46:45;;;;;;;8.40;5.18;;;;;;;;;;5069138;28;20045;-59
2024/03/19 01:49:13;;;;;;;9.13;4.82;;;;;;;;;;5077922;28;20109;-59
2024/03/19 01:51:41;;;;;;;7.78;5.18;;;;;;;;;;5074554;28;20082;-60
2024/03/19 01:54:09;;;;;;;7.97;5.40;;;;;;;;;;5080870;28;20394;-60
2024/03/19 01:56:37;;;;;;;10.60;5.53;;;;;;;;;;5075296;28;20068;-58
2024/03/19 01:59:04;;;;;;;8.50;5.38;;;;;;;;;;5081899;28;20060;-60
2024/03/19 02:01:34;;;;;;;10.27;6.25;;;;;;;;;;5075660;28;20512;-60
2024/03/19 02:04:01;;;;;;;9.43;5.22;;;;;;;;;;5070460;28;20058;-61
2024/03/19 02:06:29;;;;;;;10.30;6.25;;;;;;;;;;5067373;28;20041;-59
2024/03/19 02:09:03;;;;;;;8.95;5.85;;;;;;;;;;5069595;28;20056;-59
2024/03/19 02:11:31;;;;;;;;;;;;;;;;;;5068594;28;20052;-59
2024/03/19 02:13:58;;;;;;;8.65;5.15;;;;;;;;;;5069402;28;20333;-60
2024/03/19 02:16:26;;;;;;;9.40;5.68;;;;;;;;;;5074175;28;20044;-59
2024/03/19 02:18:58;;;;;;;7.95;5.28;;;;;;;;;;5042292;28;20056;-60
2024/03/19 02:21:26;;;;;;;9.55;5.82;;;;;;;;;;5050735;28;20049;-59
2024/03/19 02:23:57;;;;;;;9.70;5.32;;;;;;;;;;5057942;28;20052;-60
2024/03/19 02:26:26;;;;;;;8.27;4.97;;;;;;;;;;5047249;28;20049;-59
2024/03/19 02:28:54;;;;;;;8.95;5.72;;;;;;;;;;5045850;28;20045;-60
2024/03/19 02:31:22;;;;;;;8.85;5.70;;;;;;;;;;5045369;28;20103;-59
2024/03/19 02:33:50;;;;;;;9.30;5.03;;;;;;;;;;5039189;28;20525;-60
2024/03/19 02:36:17;;;;;;;8.60;5.25;;;;;;;;;;5037468;28;20099;-60
2024/03/19 02:38:45;;;;;;;11.00;5.85;;;;;;;;;;5052006;28;20560;-59
2024/03/19 02:41:14;;;;;;;8.60;4.97;;;;;;;;;;5048690;28;20052;-60
2024/03/19 02:43:41;;;;;;;10.73;6.00;;;;;;;;;;5059265;28;20514;-60
2024/03/19 02:46:08;;;;;;;8.63;5.55;;;;;;;;;;5047100;28;20114;-60
2024/03/19 02:48:36;;;;;;;10.70;6.18;;;;;;;;;;5065398;28;20056;-58
2024/03/19 02:51:03;;;;;;;13.27;6.88;;;;;;;;;;5072710;28;20102;-60
2024/03/19 02:53:30;;;;;;;11.40;6.60;;;;;;;;;;5072481;28;20102;-63
2024/03/19 02:55:58;;;;;;;8.27;5.45;;;;;;;;;;5063053;28;20102;-59
2024/03/19 02:58:27;;;;;;;10.02;5.53;;;;;;;;;;5049600;28;20110;-58
2024/03/19 03:00:54;;;;;;;11.30;6.40;;;;;;;;;;5055177;28;20049;-59
2024/03/19 03:03:22;;;;;;;9.55;5.78;;;;;;;;;;5049936;28;20055;-58
2024/03/19 03:05:49;;;;;;;8.82;5.78;;;;;;;;;;5061928;28;20059;-59
2024/03/19 03:08:17;;;;;;;11.57;6.57;;;;;;;;;;5078064;28;20040;-60
2024/03/19 03:10:44;;;;;;;10.07;6.30;;;;;;;;;;5066647;28;20438;-60
2024/03/19 03:13:12;;;;;;;10.73;6.30;;;;;;;;;;5073417;28;20044;-58
2024/03/19 03:15:41;;;;;;;10.20;5.32;;;;;;;;;;5073737;28;20421;-59
2024/03/19 03:18:08;;;;;;;10.90;5.88;;;;;;;;;;5036164;28;20049;-60
2024/03/19 03:20:35;;;;;;;10.20;5.93;;;;;;;;;;5052499;28;20041;-60
2024/03/19 03:23:03;;;;;;;10.38;6.15;;;;;;;;;;5043596;28;20491;-60
2024/03/19 03:25:32;;;;;;;10.82;6.13;;;;;;;;;;5041085;28;20053;-58
2024/03/19 03:27:59;;;;;;;10.55;5.97;;;;;;;;;;5054800;28;20394;-59
2024/03/19 03:30:27;;;;;;;10.73;5.43;;;;;;;;;;5049189;28;20202;-61
2024/03/19 03:32:56;;;;;;;10.70;6.35;;;;;;;;;;5048801;28;20060;-60
2024/03/19 03:35:23;;;;;;;10.57;6.20;;;;;;;;;;5039871;28;20060;-61
2024/03/19 03:37:50;;;;;;;10.15;6.70;;;;;;;;;;5062108;28;20053;-60
2024/03/19 03:40:18;;;;;;;12.13;6.95;;;;;;;;;;5068002;28;20052;-59
2024/03/19 03:42:46;;;;;;;14.55;6.85;;;;;;;;;;5070141;28;20055;-61
2024/03/19 03:45:14;;;;;;;11.20;6.22;;;;;;;;;;5067848;28;20502;-60
2024/03/19 03:47:42;;;;;;;11.48;6.43;;;;;;;;;;5059964;28;20098;-60
2024/03/19 03:50:11;;;;;;;12.95;7.20;;;;;;;;;;5071887;28;20425;-59
2024/03/19 03:52:39;;;;;;;11.77;6.20;;;;;;;;;;5073703;28;20041;-58
2024/03/19 03:55:08;;;;;;;9.75;6.35;;;;;;;;;;5076735;28;20056;-59
2024/03/19 03:57:36;;;;;;;12.18;6.57;;;;;;;;;;5066123;28;20596;-59
2024/03/19 04:00:08;;;;;;;11.27;6.10;;;;;;;;;;5058496;28;20166;-59
2024/03/19 04:02:36;;;;;;;12.30;6.32;;;;;;;;;;5045346;28;20053;-59
2024/03/19 04:05:04;;;;;;;11.95;6.53;;;;;;;;;;5039238;28;20489;-59
2024/03/19 04:07:36;;;;;;;10.77;5.82;;;;;;;;;;5070141;28;20459;-61
2024/03/19 04:10:04;;;;;;;13.95;6.43;;;;;;;;;;5075994;28;20052;-59
2024/03/19 04:12:32;;;;;;;11.63;7.22;;;;;;;;;;5071043;28;20060;-60
2024/03/19 04:14:59;;;;;;;13.18;7.57;;;;;;;;;;5076088;28;20059;-59
2024/03/19 04:17:27;;;;;;;11.43;6.47;;;;;;;;;;5054994;28;20426;-58
2024/03/19 04:19:54;;;;;;;11.88;6.68;;;;;;;;;;5050750;28;20555;-59
2024/03/19 04:22:22;;;;;;;12.23;6.43;;;;;;;;;;5054461;28;20140;-59
2024/03/19 04:24:50;;;;;;;12.25;6.10;;;;;;;;;;5056214;28;20513;-59
2024/03/19 04:27:18;;;;;;;13.05;7.13;;;;;;;;;;5066822;28;20098;-60
2024/03/19 04:29:46;;;;;;;12.35;6.53;;;;;;;;;;5073492;28;20468;-58
2024/03/19 04:32:13;;;;;;;12.90;6.57;;;;;;;;;;5055491;28;20040;-58
2024/03/19 04:34:41;;;;;;;13.65;7.95;;;;;;;;;;5049097;28;20099;-59
2024/03/19 04:37:08;;;;;;;11.75;6.40;;;;;;;;;;5053175;28;20052;-59
2024/03/19 04:39:36;;;;;;;12.65;6.40;;;;;;;;;;5053728;28;20052;-59
2024/03/19 04:42:05;;;;;;;11.18;6.68;;;;;;;;;;5044231;28;20633;-60
2024/03/19 04:44:32;;;;;;;10.43;5.72;;;;;;;;;;5049261;28;20053;-59
2024/03/19 04:46:59;;;;;;;12.10;6.70;;;;;;;;;;5059020;28;20067;-58
2024/03/19 04:49:27;;;;;;;12.45;6.20;;;;;;;;;;5062309;28;20067;-59
2024/03/19 04:51:55;;;;;;;10.13;5.75;;;;;;;;;;5065040;28;20089;-60
2024/03/19 04:54:22;;;;;;;13.43;5.85;;;;;;;;;;5072567;28;20060;-59
2024/03/19 04:56:49;;;;;;;11.18;5.88;;;;;;;;;;5070146;28;20067;-58
2024/03/19 04:59:18;;;;;;;10.07;6.03;;;;;;;;;;5074620;28;20049;-60
2024/03/19 05:01:46;;;;;;;12.35;6.82;;;;;;;;;;5064421;28;20184;-60
2024/03/19 05:04:13;;;;;;;12.40;6.15;;;;;;;;;;5073629;28;20412;-60
2024/03/19 05:06:40;;;;;;;11.35;5.95;;;;;;;;;;5065296;28;20044;-60
2024/03/19 05:09:08;;;;;;;11.75;6.53;;;;;;;;;;5072540;28;20516;-58
2024/03/19 05:11:35;;;;;;;12.90;6.88;;;;;;;;;;5072678;28;20048;-59
2024/03/19 05:14:03;;;;;;;15.50;7.82;;;;;;;;;;5072642;28;20053;-60
2024/03/19 05:16:32;;;;;;;13.35;6.72;;;;;;;;;;5067228;28;20474;-60
2024/03/19 05:18:59;;;;;;;10.75;6.30;;;;;;;;;;5065016;28;20052;-61
2024/03/19 05:21:27;;;;;;;12.18;6.55;;;;;;;;;;5066379;28;20044;-59
2024/03/19 05:23:54;;;;;;;12.10;6.35;;;;;;;;;;5069669;28;20151;-60
2024/03/19 05:26:21;;;;;;;11.65;6.38;;;;;;;;;;5066425;28;20041;-60
2024/03/19 05:28:49;;;;;;;14.35;6.80;;;;;;;;;;5064101;28;20057;-59
2024/03/19 05:31:23;;;;;;;10.93;6.25;;;;;;;;;;5063997;28;20051;-60
2024/03/19 05:33:52;;;;;;;14.63;6.83;;;;;;;;;;5067275;28;20072;-59
2024/03/19 05:36:19;;;;;;;14.85;7.45;;;;;;;;;;5062765;28;20056;-59
2024/03/19 05:38:47;;;;;;;13.95;6.80;;;;;;;;;;5065540;28;20052;-60
2024/03/19 05:41:15;;;;;;;12.00;6.45;;;;;;;;;;5072158;28;20094;-60
2024/03/19 05:43:43;;;;;;;14.40;6.55;;;;;;;;;;5077086;28;20049;-60
2024/03/19 05:46:10;;;;;;;11.05;6.10;;;;;;;;;;5066330;28;20428;-59
2024/03/19 05:48:38;;;;;;;11.73;6.63;;;;;;;;;;5073637;28;20045;-59
2024/03/19 05:51:07;;;;;;;14.52;7.13;;;;;;;;;;5063684;28;20440;-59
2024/03/19 05:53:35;;;;;;;13.07;6.97;;;;;;;;;;5063693;28;20137;-60
2024/03/19 05:56:04;;;;;;;11.77;6.65;;;;;;;;;;5067810;28;20060;-60
2024/03/19 05:58:31;;;;;;;13.25;6.72;;;;;;;;;;5043492;28;20056;-58
2024/03/19 06:00:59;;;;;;;15.48;8.00;;;;;;;;;;5044366;28;20468;-59
2024/03/19 06:03:27;;;;;;;14.00;7.13;;;;;;;;;;5049070;28;20409;-60
2024/03/19 06:05:58;;;;;;;11.77;6.18;;;;;;;;;;5039273;28;20057;-61
2024/03/19 06:08:27;;;;;;;12.25;6.22;;;;;;;;;;5043654;28;20041;-61
2024/03/19 06:10:55;;;;;;;13.38;6.65;;;;;;;;;;5048476;28;20065;-61
2024/03/19 06:13:22;;;;;;;11.23;5.97;;;;;;;;;;5043674;28;20049;-59
2024/03/19 06:15:50;;;;;;;11.52;6.15;;;;;;;;;;5045419;28;20111;-59
2024/03/19 06:18:18;;;;;;;11.48;6.40;;;;;;;;;;5034897;28;20049;-59
2024/03/19 06:20:46;;;;;;;12.75;6.55;;;;;;;;;;5051887;28;20060;-60
2024/03/19 06:23:14;;;;;;;13.70;6.50;;;;;;;;;;5046416;28;20049;-59
2024/03/19 06:25:43;;;;;;;13.25;6.90;;;;;;;;;;5050428;28;20048;-58
2024/03/19 06:28:10;;;;;;;12.57;6.53;;;;;;;;;;5045267;28;20044;-59
2024/03/19 06:30:38;;;;;;;12.80;6.70;;;;;;;;;;5049568;28;20052;-60
2024/03/19 06:33:06;;;;;;;10.38;5.95;;;;;;;;;;5053915;28;20072;-59
2024/03/19 06:35:34;;;;;;;11.30;6.35;;;;;;;;;;5055832;28;20049;-60
2024/03/19 06:38:02;;;;;;;11.75;5.65;;;;;;;;;;5051123;28;20037;-59
2024/03/19 06:40:30;;;;;;;12.00;6.57;;;;;;;;;;5053211;28;20167;-59
2024/03/19 06:42:59;;;;;;;11.65;6.68;;;;;;;;;;5065451;28;20080;-59
2024/03/19 06:45:29;;;;;;;12.23;6.28;;;;;;;;;;5053792;28;20045;-62
2024/03/19 06:47:57;;;;;;;13.68;7.15;;;;;;;;;;5045565;28;20110;-60
2024/03/19 06:50:25;;;;;;;11.02;5.78;;;;;;;;;;5062196;28;20307;-59
2024/03/19 06:52:53;;;;;;;12.70;6.72;;;;;;;;;;5051198;28;20053;-59
2024/03/19 06:55:21;;;;;;;11.90;6.35;;;;;;;;;;5051512;28;20071;-59
2024/03/19 06:57:48;;;;;;;12.90;6.60;;;;;;;;;;5055183;28;20064;-60
2024/03/19 07:00:18;;;;;;;10.70;6.10;;;;;;;;;;5061456;28;20048;-61
2024/03/19 07:02:47;;;;;;;15.43;6.88;;;;;;;;;;5048939;28;20557;-60
2024/03/19 07:05:14;;;;;;;11.32;6.07;;;;;;;;;;5058014;28;20052;-59
2024/03/19 07:07:42;;;;;;;10.32;5.50;;;;;;;;;;5042267;28;20464;-60
2024/03/19 07:10:12;;;;;;;11.50;6.03;;;;;;;;;;5061214;28;20064;-60
2024/03/19 07:12:40;;;;;;;10.68;5.53;;;;;;;;;;5055292;28;20119;-60
2024/03/19 07:15:10;;;;;;;14.52;6.47;;;;;;;;;;5047149;28;20053;-59
2024/03/19 07:17:41;;;;;;;14.52;6.82;;;;;;;;;;5066981;28;20040;-59
2024/03/19 07:20:12;;;;;;;12.77;6.82;;;;;;;;;;5050258;28;20414;-61
2024/03/19 07:22:40;;;;;;;11.25;5.78;;;;;;;;;;5057330;28;20489;-59
2024/03/19 07:25:08;;;;;;;12.98;6.80;;;;;;;;;;5050477;28;20045;-60
2024/03/19 07:27:39;;;;;;;11.88;6.43;;;;;;;;;;5059919;28;20721;-59
2024/03/19 07:30:08;;;;;;;12.02;6.22;;;;;;;;;;5053573;28;20049;-61
2024/03/19 07:32:35;;;;;;;11.23;6.03;;;;;;;;;;5051867;28;20056;-61
2024/03/19 07:35:04;;;;;;;9.75;5.97;;;;;;;;;;5049022;28;20060;-60
2024/03/19 07:37:31;;;;;;;10.02;5.75;;;;;;;;;;5056693;28;20468;-60
2024/03/19 07:39:59;;;;;;;13.70;7.10;;;;;;;;;;5042501;23;20061;-60
2024/03/19 07:42:27;;;;;;;11.30;5.93;;;;;;;;;;5025258;28;20477;-60
2024/03/19 07:44:55;;;;;;;10.82;6.38;;;;;;;;;;5030315;28;20049;-60
2024/03/19 07:47:22;;;;;;;11.15;6.25;;;;;;;;;;5027178;28;20042;-61
2024/03/19 07:49:50;;;;;;;12.30;5.85;;;;;;;;;;5027423;28;20411;-60
2024/03/19 07:52:19;;;;;;;12.68;6.60;;;;;;;;;;5029153;28;20069;-60
2024/03/19 07:54:47;;;;;;;14.40;7.18;;;;;;;;;;5028773;28;20049;-58
2024/03/19 07:57:14;;;;;;;11.40;5.88;;;;;;;;;;5029038;28;20426;-59
2024/03/19 07:59:42;;;;;;;12.60;6.95;;;;;;;;;;5033063;28;20041;-58
2024/03/19 08:02:09;;;;;;;10.85;6.22;;;;;;;;;;5030103;28;20057;-59
2024/03/19 08:04:37;;;;;;;14.18;6.97;;;;;;;;;;5027473;28;20499;-61
2024/03/19 08:07:04;;;;;;;11.07;6.85;;;;;;;;;;5025945;28;20091;-60
2024/03/19 08:09:33;;;;;;;14.43;6.45;;;;;;;;;;5024533;28;20108;-60
2024/03/19 08:12:05;;;;;;;11.00;6.43;;;;;;;;;;5027664;28;20049;-59
2024/03/19 08:14:33;;;;;;;11.13;6.18;;;;;;;;;;5019878;28;21098;-60
2024/03/19 08:17:02;;;;;;;14.30;7.43;;;;;;;;;;5026550;28;20042;-60
2024/03/19 08:19:29;;;;;;;11.52;6.78;;;;;;;;;;5022521;28;20054;-59
2024/03/19 08:21:56;;;;;;;13.02;7.28;;;;;;;;;;5028377;28;20068;-59
2024/03/19 08:24:24;;;;;;;10.90;6.30;;;;;;;;;;5027758;28;20615;-59
2024/03/19 08:26:53;;;;;;;12.35;7.15;;;;;;;;;;5027157;28;20057;-60
2024/03/19 08:29:20;;;;;;;14.13;7.55;;;;;;;;;;5018803;28;20041;-59
2024/03/19 08:31:48;;;;;;;11.55;6.80;;;;;;;;;;5023594;28;20434;-60
2024/03/19 08:34:16;;;;;;;10.98;6.68;;;;;;;;;;5024713;28;20061;-58
2024/03/19 08:36:43;;;;;;;9.70;6.68;;;;;;;;;;5027413;28;20041;-59
2024/03/19 08:39:10;;;;;;;12.65;5.88;;;;;;;;;;5028252;28;20076;-59
2024/03/19 08:41:38;;;;;;;11.85;6.72;;;;;;;;;;5027891;28;20057;-61
2024/03/19 08:44:07;;;;;;;11.15;6.70;;;;;;;;;;5018906;28;20502;-62
2024/03/19 08:46:34;;;;;;;11.27;6.35;;;;;;;;;;5031763;28;20099;-59
2024/03/19 08:49:02;;;;;;;11.45;6.75;;;;;;;;;;5048172;28;20099;-58
2024/03/19 08:51:31;;;;;;;11.63;7.32;;;;;;;;;;5051354;28;20056;-60
2024/03/19 08:53:59;;;;;;;10.80;6.55;;;;;;;;;;5042606;28;20041;-59
2024/03/19 08:56:26;;;;;;;11.15;6.75;;;;;;;;;;5056545;28;20048;-60
2024/03/19 08:58:53;;;;;;;11.30;6.50;;;;;;;;;;5047937;28;20410;-58
2024/03/19 09:01:22;;;;;;;10.68;6.38;;;;;;;;;;5037460;28;20049;-60
2024/03/19 09:03:51;;;;;;;11.73;7.10;;;;;;;;;;5044343;28;20057;-59
2024/03/19 09:06:19;;;;;;;11.68;6.93;;;;;;;;;;5050192;28;20410;-59
2024/03/19 09:08:46;;;;;;;9.70;5.80;;;;;;;;;;5048928;28;20057;-59
2024/03/19 09:11:14;;;;;;;14.20;7.85;;;;;;;;;;5048430;28;20437;-59
2024/03/19 09:13:41;;;;;;;13.15;6.80;;;;;;;;;;5045516;28;20063;-58
2024/03/19 09:16:09;;;;;;;12.75;7.50;;;;;;;;;;5047063;28;20060;-59
2024/03/19 09:18:39;;;;;;;13.80;7.10;;;;;;;;;;5045292;28;20452;-59
2024/03/19 09:21:07;;;;;;;11.00;6.50;;;;;;;;;;5044525;28;20052;-59
2024/03/19 09:23:35;;;;;;;11.13;6.40;;;;;;;;;;5042246;28;20049;-60
2024/03/19 09:26:02;;;;;;;11.68;6.50;;;;;;;;;;5046075;28;20049;-58
2024/03/19 09:28:31;;;;;;;10.68;6.90;;;;;;;;;;5047853;28;20057;-61
2024/03/19 09:30:59;;;;;;;12.65;7.35;;;;;;;;;;5046826;28;20053;-60
2024/03/19 09:33:26;;;;;;;12.00;6.60;;;;;;;;;;5045608;28;20045;-60
2024/03/19 09:35:55;;;;;;;11.90;7.32;;;;;;;;;;5039566;28;20690;-59
2024/03/19 09:38:23;;;;;;;11.68;6.95;;;;;;;;;;5047361;28;20041;-59
2024/03/19 09:40:53;;;;;;;13.35;6.70;;;;;;;;;;5049028;28;20060;-59
2024/03/19 09:43:22;;;;;;;13.70;7.18;;;;;;;;;;5048177;28;20458;-59
2024/03/19 09:45:50;;;;;;;10.48;6.38;;;;;;;;;;5046708;28;20368;-60
2024/03/19 09:48:18;;;;;;;13.85;7.32;;;;;;;;;;5038663;28;20038;-60
2024/03/19 09:50:46;;;;;;;10.98;6.85;;;;;;;;;;5052822;28;20083;-58
2024/03/19 09:53:18;;;;;;;11.70;7.38;;;;;;;;;;5058955;28;20064;-62
2024/03/19 09:55:46;;;;;;;11.90;7.13;;;;;;;;;;5050299;28;20114;-61
2024/03/19 09:58:14;;;;;;;10.35;6.93;;;;;;;;;;5034385;28;20046;-60
2024/03/19 10:00:45;;;;;;;11.65;6.65;;;;;;;;;;5041771;28;20561;-60
2024/03/19 10:03:12;;;;;;;11.60;6.45;;;;;;;;;;5031017;28;20437;-59
2024/03/19 10:05:40;;;;;;;11.48;6.93;;;;;;;;;;5033073;28;20052;-61
2024/03/19 10:08:07;;;;;;;9.80;6.35;;;;;;;;;;5023283;28;20470;-60
2024/03/19 10:10:36;;;;;;;11.73;7.20;;;;;;;;;;5054162;28;20073;-60
2024/03/19 10:13:04;;;;;;;12.45;6.88;;;;;;;;;;5018204;28;20049;-61
2024/03/19 10:15:31;;;;;;;10.88;6.90;;;;;;;;;;5024606;28;20123;-60
2024/03/19 10:18:00;;;;;;;9.57;5.85;;;;;;;;;;5038797;28;20045;-60
2024/03/19 10:20:27;;;;;;;10.77;6.15;;;;;;;;;;5052515;28;20053;-61
2024/03/19 10:22:55;;;;;;;9.48;6.05;;;;;;;;;;5049159;28;20045;-60
2024/03/19 10:25:22;;;;;;;12.55;7.18;;;;;;;;;;5044951;28;20045;-62
2024/03/19 10:27:51;;;;;;;10.90;6.22;;;;;;;;;;5033694;28;20056;-60
2024/03/19 10:30:19;;;;;;;8.32;5.68;;;;;;;;;;5023962;28;20049;-61
2024/03/19 10:32:49;;;;;;;10.27;6.85;;;;;;;;;;5029849;28;20061;-63
2024/03/19 10:35:20;;;;;;;10.57;7.13;;;;;;;;;;5023638;28;20427;-62
2024/03/19 10:37:48;;;;;;;8.65;5.72;;;;;;;;;;5023711;28;20439;-61
2024/03/19 10:40:16;;;;;;;9.32;5.40;;;;;;;;;;5029905;28;20056;-62
2024/03/19 10:42:44;;;;;;;9.70;5.68;;;;;;;;;;5030420;28;20049;-60
2024/03/19 10:45:17;;;;;;;7.68;5.65;;;;;;;;;;5031514;28;20142;-63
2024/03/19 10:47:45;;;;;;;12.18;6.35;;;;;;;;;;5026867;28;20045;-63
2024/03/19 10:50:13;;;;;;;9.35;5.75;;;;;;;;;;5030046;28;20446;-61
2024/03/19 10:52:42;;;;;;;8.50;5.80;;;;;;;;;;5025016;28;20068;-60
2024/03/19 10:55:12;;;;;;;7.35;5.15;;;;;;;;;;5030336;28;20486;-60
2024/03/19 10:57:41;;;;;;;7.18;5.07;;;;;;;;;;5028819;28;20054;-60
2024/03/19 11:00:22;;;;;;;11.52;5.43;;;;;;;;;;5029499;28;20053;-60
2024/03/19 11:02:50;;;;;;;7.57;5.07;;;;;;;;;;5027224;28;20076;-62
2024/03/19 11:05:21;;;;;;;6.10;4.57;;;;;;;;;;5029957;28;20064;-60
2024/03/19 11:07:48;;;;;;;9.23;4.63;;;;;;;;;;5024337;28;20045;-64
2024/03/19 11:10:22;;;;;;;6.20;4.15;;;;;;;;;;5028447;28;20052;-61
2024/03/19 11:12:56;;;;;;;7.97;4.15;;;;;;;;;;5028878;28;20395;-63
2024/03/19 11:15:25;;;;;;;6.95;4.03;;;;;;;;;;5028198;28;20045;-60
2024/03/19 11:17:52;;;;;;;7.72;4.53;;;;;;;;;;5027133;28;20049;-60
2024/03/19 11:20:21;;;;;;;8.18;4.15;;;;;;;;;;5027128;28;20042;-62
2024/03/19 11:22:49;;;;;;;5.32;3.80;;;;;;;;;;5027269;28;20061;-61
2024/03/19 11:25:17;;;;;;;5.38;3.80;;;;;;;;;;5029334;28;20447;-60
2024/03/19 11:27:49;;;;;;;6.05;3.90;;;;;;;;;;5028616;28;20100;-63
2024/03/19 11:30:17;;;;;;;5.60;4.25;;;;;;;;;;5027297;28;20057;-60
2024/03/19 11:32:45;;;;;;;5.63;4.25;;;;;;;;;;5034256;28;20060;-63
2024/03/19 11:35:20;;;;;;;7.07;4.13;;;;;;;;;;5028647;28;20053;-60
2024/03/19 11:37:51;;;;;;;4.75;3.42;;;;;;;;;;5028638;28;20573;-62
2024/03/19 11:40:20;;;;;;;5.78;4.07;;;;;;;;;;5020696;28;20475;-60
2024/03/19 11:42:49;;;;;;;4.57;3.67;;;;;;;;;;5030050;28;20060;-62
2024/03/19 11:45:17;;;;;;;5.15;3.88;;;;;;;;;;5029048;28;20383;-61
2024/03/19 11:47:46;;;;;;;4.57;3.25;;;;;;;;;;5030616;28;20056;-60
2024/03/19 11:50:18;;;;;;;7.57;3.13;;;;;;;;;;5026529;28;20053;-62
2024/03/19 11:52:46;;;;;;;7.47;3.97;;;;;;;;;;5031609;28;20053;-61
2024/03/19 11:55:13;;;;;;;4.72;3.53;;;;;;;;;;5029868;28;20057;-60
2024/03/19 11:57:41;;;;;;;4.03;3.28;;;;;;;;;;5025657;28;20083;-65
2024/03/19 12:00:11;;;;;;;3.40;2.65;;;;;;;;;;5020609;28;20060;-61
2024/03/19 12:02:40;;;;;;;5.55;2.85;;;;;;;;;;5028510;28;20061;-61
2024/03/19 12:05:12;;;;;;;5.88;3.92;;;;;;;;;;5028150;28;20061;-59
2024/03/19 12:07:40;;;;;;;5.22;3.22;;;;;;;;;;5042994;28;20040;-60
2024/03/19 12:10:23;;;;;;;4.40;3.35;;;;;;;;;;5046920;28;20072;-62
2024/03/19 12:12:51;;;;;;;4.78;3.47;;;;;;;;;;5042076;28;20041;-62
2024/03/19 12:15:20;;;;;;;4.57;3.38;;;;;;;;;;5047816;28;20560;-61
2024/03/19 12:17:48;;;;;;;6.88;3.28;;;;;;;;;;5047513;28;20587;-61
2024/03/19 12:20:17;;;;;;;3.85;3.13;;;;;;;;;;5039470;28;20073;-60
2024/03/19 12:22:48;;;;;;;3.55;2.83;;;;;;;;;;5049711;28;20049;-65
2024/03/19 12:25:15;;;;;;;4.20;3.00;;;;;;;;;;5059853;28;20053;-62
2024/03/19 12:27:43;;;;;;;4.50;3.53;;;;;;;;;;5048476;28;20045;-60
2024/03/19 12:30:13;;;;;;;4.38;2.47;;;;;;;;;;5050012;28;20052;-59
2024/03/19 12:32:48;;;;;;;4.03;2.58;;;;;;;;;;5045053;28;20049;-60
2024/03/19 12:35:17;;;;;;;5.43;2.67;;;;;;;;;;5029755;28;20498;-61
2024/03/19 12:37:44;;;;;;;4.32;3.15;;;;;;;;;;5031668;28;20132;-62
2024/03/19 12:40:18;;;;;;;5.22;3.35;;;;;;;;;;5012982;28;20069;-60
2024/03/19 12:42:46;;;;;;;5.75;3.42;;;;;;;;;;5007848;28;20423;-59
2024/03/19 12:45:15;;;;;;;4.55;2.90;;;;;;;;;;5007082;28;20058;-59
2024/03/19 12:47:43;;;;;;;5.18;3.20;;;;;;;;;;5004934;28;20112;-60
2024/03/19 12:50:11;;;;;;;4.90;2.72;;;;;;;;;;5004594;28;20407;-61
2024/03/19 12:52:40;;;;;;;3.97;2.85;;;;;;;;;;5006261;28;20054;-59
2024/03/19 12:55:08;;;;;;;3.38;2.70;;;;;;;;;;5003237;28;20061;-60
2024/03/19 12:57:36;;;;;;;4.53;2.60;;;;;;;;;;5006733;28;20506;-60
2024/03/19 13:00:05;;;;;;;2.85;2.10;;;;;;;;;;5006671;28;20431;-60
2024/03/19 13:02:32;;;;;;;2.28;1.80;;;;;;;;;;5004495;28;20152;-62
2024/03/19 13:04:59;;;;;;;3.35;2.60;;;;;;;;;;5007152;28;20057;-60
2024/03/19 13:07:27;;;;;;;3.25;2.08;;;;;;;;;;5016430;28;20483;-60
2024/03/19 13:09:56;;;;;;;2.65;2.13;;;;;;;;;;5019608;28;20053;-61
2024/03/19 13:12:23;;;;;;;3.53;2.08;;;;;;;;;;5025691;28;20200;-61
2024/03/19 13:14:52;;;;;;;3.35;2.10;;;;;;;;;;5025523;28;20053;-61
2024/03/19 13:17:19;;;;;;;4.15;2.42;;;;;;;;;;5023957;28;20629;-61
2024/03/19 13:19:47;;;;;;;2.47;2.10;;;;;;;;;;5025574;28;20053;-60
2024/03/19 13:22:15;;;;;;;5.78;2.80;;;;;;;;;;5028413;28;20056;-60
2024/03/19 13:24:42;;;;;;;2.85;2.22;;;;;;;;;;5031279;28;20406;-61
2024/03/19 13:27:11;;;;;;;5.25;2.83;;;;;;;;;;5030144;28;20581;-60
2024/03/19 13:29:39;;;;;;;3.35;2.50;;;;;;;;;;5028540;28;20053;-61
2024/03/19 13:32:06;;;;;;;3.10;2.30;;;;;;;;;;5031565;28;20129;-60
2024/03/19 13:34:34;;;;;;;5.00;2.15;;;;;;;;;;5030404;28;20100;-61
2024/03/19 13:37:02;;;;;;;3.53;2.08;;;;;;;;;;5030915;28;20092;-60
2024/03/19 13:39:30;;;;;;;2.58;1.95;;;;;;;;;;5030399;28;20289;-60
2024/03/19 13:41:57;;;;;;;3.35;2.53;;;;;;;;;;5031091;28;20053;-60
2024/03/19 13:44:26;;;;;;;3.17;2.40;;;;;;;;;;5031440;28;20053;-60
2024/03/19 13:46:54;;;;;;;2.17;1.77;;;;;;;;;;5031091;28;20050;-60
2024/03/19 13:49:26;;;;;;;2.10;1.40;;;;;;;;;;5021999;28;20046;-60
2024/03/19 13:51:54;;;;;;;1.92;1.50;;;;;;;;;;5029232;28;20072;-64
2024/03/19 13:54:21;;;;;;;3.20;1.70;;;;;;;;;;5030543;28;20049;-62
2024/03/19 13:56:49;;;;;;;3.67;1.77;;;;;;;;;;5030446;28;20053;-60
2024/03/19 13:59:16;;;;;;;2.85;1.90;;;;;;;;;;5023215;28;20053;-60
2024/03/19 14:01:45;;;;;;;3.50;2.00;;;;;;;;;;5025202;28;20057;-61
2024/03/19 14:04:13;;;;;;;4.88;2.55;;;;;;;;;;5030474;28;20045;-61
2024/03/19 14:06:40;;;;;;;4.63;1.83;;;;;;;;;;5030222;28;20426;-61
2024/03/19 14:09:10;;;;;;;3.80;2.28;;;;;;;;;;5029423;28;20045;-62
2024/03/19 14:11:38;;;;;;;2.67;1.85;;;;;;;;;;5029720;28;20045;-60
2024/03/19 14:14:07;;;;;;;3.53;2.10;;;;;;;;;;5029460;28;20050;-60
2024/03/19 14:16:35;;;;;;;2.30;1.73;;;;;;;;;;5024400;28;20045;-61
2024/03/19 14:19:04;;;;;;;2.40;1.85;;;;;;;;;;5022539;28;20045;-62
2024/03/19 14:21:31;;;;;;;3.28;1.80;;;;;;;;;;5029740;28;20045;-61
2024/03/19 14:23:59;;;;;;;4.43;2.00;;;;;;;;;;5027385;28;20045;-60
2024/03/19 14:26:26;;;;;;;2.67;1.90;;;;;;;;;;5018447;28;20045;-61
2024/03/19 14:28:57;;;;;;;3.47;1.70;;;;;;;;;;5009235;28;20057;-61
2024/03/19 14:31:24;;;;;;;2.00;1.38;;;;;;;;;;5010291;28;20061;-61
2024/03/19 14:33:51;;;;;;;3.58;1.75;;;;;;;;;;5008712;28;20514;-61
2024/03/19 14:36:20;;;;;;;1.55;1.42;;;;;;;;;;5010108;28;20050;-60
2024/03/19 14:38:48;;;;;;;3.00;1.55;;;;;;;;;;5011057;28;20065;-60
2024/03/19 14:41:15;;;;;;;1.95;1.42;;;;;;;;;;5033858;28;20498;-61